首页
METAR-TAF:

METAR-TAF

机场 :

連科蘭國際機場

連科蘭, 阿塞拜疆

纬度: 38-44-47N, 经度: 048-49-04E, 海拔: 9米

当前天气观测

该预报发布于23分钟前的06:00 UTC
风速9节,风向东转东南
温度 14°C
湿度 55%
气压 1019 hPa
能见度10公里或以上

METAR: UBBL 290600Z 12009KT 9999 NSC 14/05 Q1019 R33/CLRD// NOSIG RMK MT OP

时间: 10:23 (06:23 UTC)

预报

该预报发布于56分钟前的05:27 UTC
预报有效从29日的 06点(UTC)到 01日的 06点(UTC)
风速8节,风向东南
能见度10公里或以上
散云层高于10000英尺
短暂存在
从 29日的 06点(UTC)到 29日的 16点(UTC)
风速14节,风向
散云层高于2500英尺
短暂存在
从 29日的 16点(UTC)到 01日的 03点(UTC)
风速6节,风向南转西南

TAF: UBBL 290527Z 2906/0106 14008KT 9999 SCT100 TX15/2910Z TN04/0102Z TEMPO 2906/2916 18014KT SCT025 TEMPO 2916/0103 21006KT

超过4000个机场的气象观测和天气预报(METAR&TAF报告)。

可查询的气象台以黄色和红色小点在地图上表示。

将鼠标移到小点上方,可查看气象台名称。

然后点击查看天气观测和预报。

如需切换地图:点击带黑十字的绿色按钮放大地图;点击带横线的绿色按钮缩小地图;或者点击绿色箭头查看邻近地区的地图。


METAR-TAF: